createdAt,value
2022-11-07T00:03:44.374Z,90.8
2022-11-07T00:08:47.926Z,91
2022-11-07T00:13:52.485Z,91.3
2022-11-07T00:18:56.986Z,91.7
2022-11-07T00:24:01.510Z,91.8
2022-11-07T00:29:05.129Z,92.1
2022-11-07T00:34:08.663Z,92.1
2022-11-07T00:39:13.139Z,91.9
2022-11-07T00:44:17.700Z,91.5
2022-11-07T00:49:22.360Z,92
2022-11-07T00:54:26.917Z,92.2
2022-11-07T00:59:31.423Z,91.9
2022-11-07T01:04:35.937Z,92
2022-11-07T01:09:40.575Z,91.7
2022-11-07T01:14:45.166Z,91.7
2022-11-07T01:19:49.707Z,91.3
2022-11-07T01:24:53.261Z,91.8
2022-11-07T01:29:57.763Z,92
2022-11-07T01:35:02.285Z,92
2022-11-07T01:40:05.825Z,91.9
2022-11-07T01:45:10.379Z,92.2
2022-11-07T01:50:14.876Z,92.1
2022-11-07T01:55:18.426Z,92.1
2022-11-07T02:00:23.029Z,92.7
2022-11-07T02:05:27.500Z,94
2022-11-07T02:10:32.062Z,94.8
2022-11-07T02:15:36.720Z,94.8
2022-11-07T02:20:41.220Z,95.3
2022-11-07T02:25:45.794Z,95.7
2022-11-07T02:30:49.366Z,95.3
2022-11-07T02:35:53.859Z,95.6
2022-11-07T02:40:58.398Z,95.6
2022-11-07T02:46:01.985Z,95.9
2022-11-07T02:51:06.497Z,95.4
2022-11-07T02:56:10.984Z,95.6
2022-11-07T03:01:14.942Z,95.9
2022-11-07T03:06:19.180Z,96.3
2022-11-07T03:11:23.653Z,96.5
2022-11-07T03:16:28.360Z,97.8
2022-11-07T03:21:31.724Z,98.1
2022-11-07T03:26:36.322Z,98.5
2022-11-07T03:31:40.829Z,98.6
2022-11-07T03:36:45.475Z,97.5
2022-11-07T03:41:49.993Z,98.3
2022-11-07T03:46:54.680Z,98.4
2022-11-07T03:51:59.204Z,98.7
2022-11-07T03:57:03.736Z,99.2
2022-11-07T04:02:08.544Z,99
2022-11-07T04:07:11.811Z,98.9
2022-11-07T04:12:16.326Z,98.6
2022-11-07T04:17:20.910Z,97.7
2022-11-07T04:22:25.418Z,97.1
2022-11-07T04:27:28.992Z,97.3
2022-11-07T04:32:33.524Z,96.7
2022-11-07T04:37:38.013Z,95.8
2022-11-07T04:42:41.608Z,94.9
2022-11-07T04:47:46.249Z,93.7
2022-11-07T04:52:50.776Z,93.7
2022-11-07T04:57:55.326Z,93.6
2022-11-07T05:02:59.960Z,93
2022-11-07T05:08:03.386Z,93.3
2022-11-07T05:13:07.928Z,91.6
2022-11-07T05:18:12.493Z,91
2022-11-07T05:23:16.597Z,90.7
2022-11-07T05:28:28.115Z,89.3
2022-11-07T05:33:25.079Z,89.1
2022-11-07T05:38:28.595Z,88.9
2022-11-07T05:43:33.150Z,88
2022-11-07T05:48:37.726Z,88.2
2022-11-07T05:53:41.224Z,88.3
2022-11-07T05:58:45.789Z,88.1
2022-11-07T06:03:50.370Z,88
2022-11-07T06:08:54.858Z,87.8
2022-11-07T06:13:58.413Z,87.4
2022-11-07T06:19:02.994Z,87.6
2022-11-07T06:24:12.383Z,87.4
2022-11-07T06:29:11.041Z,87.2
2022-11-07T06:34:15.593Z,86.7
2022-11-07T06:39:20.082Z,86.8
2022-11-07T06:44:23.678Z,86.3
2022-11-07T06:49:28.192Z,86.5
2022-11-07T06:54:32.699Z,86.3
2022-11-07T06:59:36.283Z,86.4
2022-11-07T07:04:41.016Z,86.1
2022-11-07T07:09:45.330Z,86.1
2022-11-07T07:14:49.860Z,86.1
2022-11-07T07:19:53.525Z,85.9
2022-11-07T07:24:57.995Z,86.4
2022-11-07T07:30:02.566Z,86.3
2022-11-07T07:35:07.257Z,86.6
2022-11-07T07:40:11.721Z,86.7
2022-11-07T07:45:16.211Z,86.2
2022-11-07T07:50:19.912Z,86
2022-11-07T07:55:24.300Z,85.7
2022-11-07T08:00:28.820Z,85.9
2022-11-07T08:05:32.494Z,86
2022-11-07T08:10:44.103Z,86.2
2022-11-07T08:15:41.430Z,86.3
2022-11-07T08:20:46.099Z,86.3
2022-11-07T08:25:49.541Z,86.4
2022-11-07T08:30:54.095Z,86.4
2022-11-07T08:35:58.641Z,86.3
2022-11-07T08:41:03.261Z,86.4
2022-11-07T08:46:07.784Z,86.2
2022-11-07T08:51:12.349Z,86.2
2022-11-07T08:56:15.877Z,86.1
2022-11-07T09:01:20.502Z,86.1
2022-11-07T09:06:23.958Z,85.8
2022-11-07T09:11:28.487Z,86
2022-11-07T09:16:33.055Z,86
2022-11-07T09:21:37.732Z,86.2
2022-11-07T09:26:42.175Z,86.9
2022-11-07T09:31:46.739Z,86.4
2022-11-07T09:36:51.408Z,85.6
2022-11-07T09:41:55.935Z,85.4
2022-11-07T09:47:00.446Z,85.7
2022-11-07T09:52:04.072Z,85.4
2022-11-07T09:57:13.965Z,85.9
2022-11-07T10:02:13.154Z,85.6
2022-11-07T10:07:17.654Z,85.4
2022-11-07T10:12:21.159Z,85.5
2022-11-07T10:17:25.709Z,85.4
2022-11-07T10:22:30.241Z,85.6
2022-11-07T10:27:33.802Z,85.3
2022-11-07T10:32:38.345Z,85.4
2022-11-07T10:37:42.833Z,85.4
2022-11-07T10:42:46.404Z,85
2022-11-07T10:47:50.908Z,85.2
2022-11-07T10:52:55.580Z,85.5
2022-11-07T10:57:59.000Z,84.9
2022-11-07T11:03:03.557Z,84.8
2022-11-07T11:08:08.116Z,84.5
2022-11-07T11:13:12.609Z,83.4
2022-11-07T11:18:16.439Z,83.4
2022-11-07T11:23:20.749Z,82.7
2022-11-07T11:28:25.282Z,82.3
2022-11-07T11:33:28.790Z,82.5
2022-11-07T11:38:33.353Z,81.4
2022-11-07T11:43:37.874Z,80.7
2022-11-07T11:48:41.427Z,79.9
2022-11-07T11:53:45.999Z,81.3
2022-11-07T11:58:50.469Z,82.1
2022-11-07T12:03:54.080Z,82.1
2022-11-07T12:08:58.619Z,81.8
2022-11-07T12:14:03.120Z,82.2
2022-11-07T12:19:07.639Z,82.2
2022-11-07T12:24:12.332Z,82.4
2022-11-07T12:29:16.878Z,81.5
2022-11-07T12:34:21.375Z,81.9
2022-11-07T12:39:24.944Z,81.6
2022-11-07T12:44:29.461Z,80.9
2022-11-07T12:49:33.987Z,80.3
2022-11-07T12:54:37.593Z,80.4
2022-11-07T12:59:42.046Z,79.9
2022-11-07T13:04:46.624Z,80.7
2022-11-07T13:09:51.304Z,80.3
2022-11-07T13:14:55.808Z,80.7
2022-11-07T13:20:00.458Z,80.8
2022-11-07T13:25:06.838Z,80.9
2022-11-07T13:30:09.554Z,80.8
2022-11-07T13:35:13.056Z,81.2
2022-11-07T13:40:17.635Z,81.6
2022-11-07T13:45:22.152Z,81.2
2022-11-07T13:50:26.818Z,81.2
2022-11-07T13:55:31.324Z,81.2
2022-11-07T14:00:35.871Z,81.4
2022-11-07T14:05:40.373Z,82
2022-11-07T14:10:43.969Z,82.4
2022-11-07T14:15:48.464Z,82.6
2022-11-07T14:20:53.000Z,82.9
2022-11-07T14:25:56.631Z,83.2
2022-11-07T14:31:01.090Z,83.4
2022-11-07T14:36:05.634Z,83.8
2022-11-07T14:41:10.305Z,83.8
2022-11-07T14:46:14.800Z,84.2
2022-11-07T14:51:19.389Z,84
2022-11-07T14:56:23.870Z,84.2
2022-11-07T15:01:27.738Z,84.2
2022-11-07T15:06:31.971Z,84.3
2022-11-07T15:11:36.483Z,84
2022-11-07T15:16:41.164Z,83.8
2022-11-07T15:21:45.680Z,83.8
2022-11-07T15:26:50.264Z,83.5
2022-11-07T15:31:53.828Z,83.6
2022-11-07T15:36:58.340Z,83.8
2022-11-07T15:42:03.156Z,83.8
2022-11-07T15:47:06.448Z,83.7
2022-11-07T15:52:10.906Z,83.9
2022-11-07T15:57:15.447Z,83.9
2022-11-07T16:02:20.160Z,84.1
2022-11-07T16:07:23.542Z,84
2022-11-07T16:12:28.094Z,84
2022-11-07T16:17:32.645Z,83.9
2022-11-07T16:22:37.280Z,83.8
2022-11-07T16:27:41.794Z,84.2
2022-11-07T16:32:46.381Z,84.3
2022-11-07T16:37:49.865Z,84.7
2022-11-07T16:42:54.403Z,84.8
2022-11-07T16:47:59.045Z,84.9
2022-11-07T16:53:03.599Z,85.3
2022-11-07T16:58:08.150Z,85.5
2022-11-07T17:03:12.708Z,85.3
2022-11-07T17:08:17.615Z,85.3
2022-11-07T17:13:20.749Z,85.3
2022-11-07T17:18:25.355Z,85.3
2022-11-07T17:23:30.563Z,85.5
2022-11-07T17:28:34.542Z,85.8
2022-11-07T17:33:38.065Z,85.7
2022-11-07T17:38:42.551Z,85.7
2022-11-07T17:43:47.081Z,85.8
2022-11-07T17:48:51.799Z,86
2022-11-07T17:53:56.272Z,86.8
2022-11-07T17:59:00.812Z,86.8
2022-11-07T18:04:05.416Z,87
2022-11-07T18:09:08.927Z,87
2022-11-07T18:14:13.450Z,87
2022-11-07T18:19:18.004Z,86.7
2022-11-07T18:24:22.622Z,86.6
2022-11-07T18:29:27.178Z,86.6
2022-11-07T18:34:31.709Z,86.8
2022-11-07T18:39:35.283Z,86.8
2022-11-07T18:44:39.805Z,87.1
2022-11-07T18:49:44.342Z,87.6
2022-11-07T18:54:48.990Z,88
2022-11-07T18:59:53.531Z,88.2
2022-11-07T19:04:58.052Z,88.4
2022-11-07T19:10:02.572Z,88.7
2022-11-07T19:15:06.158Z,89.1
2022-11-07T19:20:10.921Z,89.6
2022-11-07T19:25:15.198Z,89.9
2022-11-07T19:30:19.939Z,90.5
2022-11-07T19:35:24.435Z,91
2022-11-07T19:40:28.917Z,91.5
2022-11-07T19:45:32.459Z,91.9
2022-11-07T19:50:37.073Z,91.9
2022-11-07T19:55:41.523Z,92
2022-11-07T20:00:46.321Z,92.3
2022-11-07T20:05:50.725Z,92
2022-11-07T20:10:55.274Z,92.2
2022-11-07T20:15:59.796Z,92.1
2022-11-07T20:21:03.416Z,92.4
2022-11-07T20:26:07.866Z,92.6
2022-11-07T20:31:12.408Z,92.7
2022-11-07T20:36:17.110Z,93.2
2022-11-07T20:41:21.592Z,93.4
2022-11-07T20:46:26.152Z,93.5
2022-11-07T20:51:29.739Z,93.5
2022-11-07T20:56:34.219Z,93.4
2022-11-07T21:01:38.961Z,93.6
2022-11-07T21:06:43.438Z,93.6
2022-11-07T21:11:47.962Z,93.6
2022-11-07T21:16:52.502Z,93.5
2022-11-07T21:21:57.032Z,93.6
2022-11-07T21:27:00.571Z,93.3
2022-11-07T21:32:05.092Z,93.2
2022-11-07T21:37:09.639Z,93.9
2022-11-07T21:42:14.312Z,93.8
2022-11-07T21:47:18.960Z,93.9
2022-11-07T21:52:23.496Z,94.4
2022-11-07T21:57:28.037Z,94.7
2022-11-07T22:02:32.623Z,94.2
2022-11-07T22:07:36.133Z,93.2
2022-11-07T22:12:40.632Z,91.9
2022-11-07T22:17:45.202Z,91.5
2022-11-07T22:22:49.885Z,91.6
2022-11-07T22:27:54.363Z,91.6
2022-11-07T22:32:58.899Z,92.3
2022-11-07T22:38:02.647Z,93
2022-11-07T22:43:06.983Z,93.8
2022-11-07T22:48:11.517Z,93.3
2022-11-07T22:53:16.448Z,92.6
2022-11-07T22:58:20.788Z,93.6
2022-11-07T23:03:25.242Z,94
2022-11-07T23:08:29.798Z,94.1
2022-11-07T23:13:33.343Z,93.8
2022-11-07T23:18:37.849Z,93.4
2022-11-07T23:23:42.422Z,93.8
2022-11-07T23:28:47.050Z,95.1
2022-11-07T23:33:51.558Z,95.9
2022-11-07T23:38:56.150Z,96.6
2022-11-07T23:43:59.660Z,96.7
2022-11-07T23:49:04.201Z,96.7
2022-11-07T23:54:08.783Z,96.8
2022-11-07T23:59:13.261Z,97
